sensor_id;sensor_type;location;lat;lon;timestamp;temperature;humidity
21167;DHT22;10741;52.272;9.580;2023-06-14T00:01:35;15.10;99.20
21167;DHT22;10741;52.272;9.580;2023-06-14T00:04:05;15.10;99.40
21167;DHT22;10741;52.272;9.580;2023-06-14T00:06:35;15.10;99.30
21167;DHT22;10741;52.272;9.580;2023-06-14T00:09:01;15.00;99.50
21167;DHT22;10741;52.272;9.580;2023-06-14T00:11:27;14.90;99.60
21167;DHT22;10741;52.272;9.580;2023-06-14T00:13:53;14.90;99.90
21167;DHT22;10741;52.272;9.580;2023-06-14T00:16:19;14.90;99.90
21167;DHT22;10741;52.272;9.580;2023-06-14T00:18:45;14.80;99.90
21167;DHT22;10741;52.272;9.580;2023-06-14T00:21:12;14.70;99.90
21167;DHT22;10741;52.272;9.580;2023-06-14T00:23:39;14.60;99.90
21167;DHT22;10741;52.272;9.580;2023-06-14T00:26:13;14.40;99.90
21167;DHT22;10741;52.272;9.580;2023-06-14T00:35:46;13.90;99.90
21167;DHT22;10741;52.272;9.580;2023-06-14T00:38:20;14.00;99.90
21167;DHT22;10741;52.272;9.580;2023-06-14T00:40:48;14.00;99.90
21167;DHT22;10741;52.272;9.580;2023-06-14T00:43:15;14.30;99.90
21167;DHT22;10741;52.272;9.580;2023-06-14T00:45:41;13.70;99.90
21167;DHT22;10741;52.272;9.580;2023-06-14T00:48:09;14.20;99.90
21167;DHT22;10741;52.272;9.580;2023-06-14T00:50:39;14.80;99.90
21167;DHT22;10741;52.272;9.580;2023-06-14T00:53:06;14.10;99.90
21167;DHT22;10741;52.272;9.580;2023-06-14T00:55:33;14.10;99.90
21167;DHT22;10741;52.272;9.580;2023-06-14T00:58:01;14.20;99.90
21167;DHT22;10741;52.272;9.580;2023-06-14T01:00:28;14.30;99.90
21167;DHT22;10741;52.272;9.580;2023-06-14T01:03:00;14.00;99.90
21167;DHT22;10741;52.272;9.580;2023-06-14T01:05:27;13.90;99.90
21167;DHT22;10741;52.272;9.580;2023-06-14T01:08:01;14.10;99.90
21167;DHT22;10741;52.272;9.580;2023-06-14T01:10:41;14.00;99.90
21167;DHT22;10741;52.272;9.580;2023-06-14T01:13:19;13.40;99.90
21167;DHT22;10741;52.272;9.580;2023-06-14T01:15:48;13.80;99.90
21167;DHT22;10741;52.272;9.580;2023-06-14T01:18:15;12.60;99.90
21167;DHT22;10741;52.272;9.580;2023-06-14T01:20:47;13.70;99.90
21167;DHT22;10741;52.272;9.580;2023-06-14T01:23:19;12.40;99.90
21167;DHT22;10741;52.272;9.580;2023-06-14T01:25:46;13.60;99.90
21167;DHT22;10741;52.272;9.580;2023-06-14T01:28:13;13.60;99.90
21167;DHT22;10741;52.272;9.580;2023-06-14T01:30:44;13.60;99.90
21167;DHT22;10741;52.272;9.580;2023-06-14T01:33:18;13.50;99.90
21167;DHT22;10741;52.272;9.580;2023-06-14T01:35:47;13.50;99.90
21167;DHT22;10741;52.272;9.580;2023-06-14T01:38:14;13.40;99.90
21167;DHT22;10741;52.272;9.580;2023-06-14T01:40:44;13.40;99.90
21167;DHT22;10741;52.272;9.580;2023-06-14T01:43:13;13.40;99.90
21167;DHT22;10741;52.272;9.580;2023-06-14T01:45:41;13.40;99.90
21167;DHT22;10741;52.272;9.580;2023-06-14T01:48:08;13.30;99.90
21167;DHT22;10741;52.272;9.580;2023-06-14T01:50:34;13.20;99.90
21167;DHT22;10741;52.272;9.580;2023-06-14T01:53:00;13.10;99.90
21167;DHT22;10741;52.272;9.580;2023-06-14T01:55:26;13.10;99.90
21167;DHT22;10741;52.272;9.580;2023-06-14T01:57:52;13.10;99.90
21167;DHT22;10741;52.272;9.580;2023-06-14T02:00:19;13.10;99.90
21167;DHT22;10741;52.272;9.580;2023-06-14T02:02:47;13.20;99.90
21167;DHT22;10741;52.272;9.580;2023-06-14T02:05:13;13.20;99.90
21167;DHT22;10741;52.272;9.580;2023-06-14T02:07:38;13.10;99.90
21167;DHT22;10741;52.272;9.580;2023-06-14T02:10:05;13.00;99.90
21167;DHT22;10741;52.272;9.580;2023-06-14T02:12:31;12.80;99.90
21167;DHT22;10741;52.272;9.580;2023-06-14T02:14:57;12.80;99.90
21167;DHT22;10741;52.272;9.580;2023-06-14T02:17:23;12.80;99.90
21167;DHT22;10741;52.272;9.580;2023-06-14T02:19:50;12.80;99.90
21167;DHT22;10741;52.272;9.580;2023-06-14T02:22:16;12.80;99.90
21167;DHT22;10741;52.272;9.580;2023-06-14T02:24:43;12.70;99.90
21167;DHT22;10741;52.272;9.580;2023-06-14T02:27:08;12.70;99.90
21167;DHT22;10741;52.272;9.580;2023-06-14T02:29:37;12.70;99.90
21167;DHT22;10741;52.272;9.580;2023-06-14T02:32:06;12.80;99.90
21167;DHT22;10741;52.272;9.580;2023-06-14T02:34:35;12.70;99.90
21167;DHT22;10741;52.272;9.580;2023-06-14T02:37:02;12.70;99.90
21167;DHT22;10741;52.272;9.580;2023-06-14T02:39:30;12.60;99.90
21167;DHT22;10741;52.272;9.580;2023-06-14T02:41:56;12.70;99.90
21167;DHT22;10741;52.272;9.580;2023-06-14T02:44:26;12.70;99.90
21167;DHT22;10741;52.272;9.580;2023-06-14T02:46:53;12.60;99.90
21167;DHT22;10741;52.272;9.580;2023-06-14T02:49:21;12.70;99.90
21167;DHT22;10741;52.272;9.580;2023-06-14T02:51:47;12.70;99.90
21167;DHT22;10741;52.272;9.580;2023-06-14T02:54:12;12.60;99.90
21167;DHT22;10741;52.272;9.580;2023-06-14T02:56:39;12.50;99.90
21167;DHT22;10741;52.272;9.580;2023-06-14T02:59:04;12.40;99.90
21167;DHT22;10741;52.272;9.580;2023-06-14T03:01:30;12.40;99.90
21167;DHT22;10741;52.272;9.580;2023-06-14T03:04:07;12.40;99.90
21167;DHT22;10741;52.272;9.580;2023-06-14T03:06:33;12.40;99.90
21167;DHT22;10741;52.272;9.580;2023-06-14T03:08:59;12.30;99.90
21167;DHT22;10741;52.272;9.580;2023-06-14T03:11:26;12.20;99.90
21167;DHT22;10741;52.272;9.580;2023-06-14T03:13:53;12.20;99.90
21167;DHT22;10741;52.272;9.580;2023-06-14T03:16:19;12.20;99.90
21167;DHT22;10741;52.272;9.580;2023-06-14T03:18:51;12.20;99.90
21167;DHT22;10741;52.272;9.580;2023-06-14T03:21:17;12.20;99.90
21167;DHT22;10741;52.272;9.580;2023-06-14T03:23:44;12.20;99.90
21167;DHT22;10741;52.272;9.580;2023-06-14T03:26:10;12.20;99.90
21167;DHT22;10741;52.272;9.580;2023-06-14T03:28:40;12.20;99.90
21167;DHT22;10741;52.272;9.580;2023-06-14T03:31:07;12.20;99.90
21167;DHT22;10741;52.272;9.580;2023-06-14T03:33:34;12.20;99.90
21167;DHT22;10741;52.272;9.580;2023-06-14T03:36:01;12.30;99.90
21167;DHT22;10741;52.272;9.580;2023-06-14T03:38:26;12.30;99.90
21167;DHT22;10741;52.272;9.580;2023-06-14T03:40:52;12.30;99.90
21167;DHT22;10741;52.272;9.580;2023-06-14T03:43:18;12.30;99.90
21167;DHT22;10741;52.272;9.580;2023-06-14T03:45:43;12.30;99.90
21167;DHT22;10741;52.272;9.580;2023-06-14T03:48:10;12.30;99.90
21167;DHT22;10741;52.272;9.580;2023-06-14T03:50:36;12.40;99.90
21167;DHT22;10741;52.272;9.580;2023-06-14T03:53:04;12.50;99.90
21167;DHT22;10741;52.272;9.580;2023-06-14T03:55:30;12.60;99.90
21167;DHT22;10741;52.272;9.580;2023-06-14T03:57:57;12.60;99.90
21167;DHT22;10741;52.272;9.580;2023-06-14T04:00:23;12.60;99.90
21167;DHT22;10741;52.272;9.580;2023-06-14T04:02:48;12.70;99.90
21167;DHT22;10741;52.272;9.580;2023-06-14T04:05:14;12.70;99.90
21167;DHT22;10741;52.272;9.580;2023-06-14T04:07:42;12.70;99.90
21167;DHT22;10741;52.272;9.580;2023-06-14T04:10:11;12.80;99.90
21167;DHT22;10741;52.272;9.580;2023-06-14T04:12:38;12.80;99.90
21167;DHT22;10741;52.272;9.580;2023-06-14T04:15:04;12.80;99.90
21167;DHT22;10741;52.272;9.580;2023-06-14T04:17:32;12.90;99.90
21167;DHT22;10741;52.272;9.580;2023-06-14T04:20:01;13.00;99.90
21167;DHT22;10741;52.272;9.580;2023-06-14T04:22:28;13.10;99.90
21167;DHT22;10741;52.272;9.580;2023-06-14T04:24:57;13.10;99.90
21167;DHT22;10741;52.272;9.580;2023-06-14T04:27:23;13.20;99.90
21167;DHT22;10741;52.272;9.580;2023-06-14T04:29:54;13.30;99.90
21167;DHT22;10741;52.272;9.580;2023-06-14T04:32:25;13.30;99.90
21167;DHT22;10741;52.272;9.580;2023-06-14T04:34:53;13.40;99.90
21167;DHT22;10741;52.272;9.580;2023-06-14T04:37:20;13.50;99.90
21167;DHT22;10741;52.272;9.580;2023-06-14T04:39:47;13.70;99.90
21167;DHT22;10741;52.272;9.580;2023-06-14T04:42:13;13.80;99.90
21167;DHT22;10741;52.272;9.580;2023-06-14T04:44:41;13.80;99.90
21167;DHT22;10741;52.272;9.580;2023-06-14T04:47:07;13.90;99.90
21167;DHT22;10741;52.272;9.580;2023-06-14T04:49:32;14.00;99.90
21167;DHT22;10741;52.272;9.580;2023-06-14T04:52:00;14.10;99.90
21167;DHT22;10741;52.272;9.580;2023-06-14T04:54:27;14.20;99.90
21167;DHT22;10741;52.272;9.580;2023-06-14T04:56:53;14.30;99.90
21167;DHT22;10741;52.272;9.580;2023-06-14T04:59:21;14.30;99.90
21167;DHT22;10741;52.272;9.580;2023-06-14T05:01:49;14.40;99.90
21167;DHT22;10741;52.272;9.580;2023-06-14T05:04:15;14.40;99.90
21167;DHT22;10741;52.272;9.580;2023-06-14T05:06:45;14.60;99.90
21167;DHT22;10741;52.272;9.580;2023-06-14T05:09:12;14.70;99.90
21167;DHT22;10741;52.272;9.580;2023-06-14T05:11:37;14.80;99.90
21167;DHT22;10741;52.272;9.580;2023-06-14T05:14:03;14.90;99.90
21167;DHT22;10741;52.272;9.580;2023-06-14T05:16:29;15.00;99.90
21167;DHT22;10741;52.272;9.580;2023-06-14T05:18:55;15.20;99.90
21167;DHT22;10741;52.272;9.580;2023-06-14T05:21:21;15.20;99.90
21167;DHT22;10741;52.272;9.580;2023-06-14T05:23:47;15.40;99.90
21167;DHT22;10741;52.272;9.580;2023-06-14T05:26:12;15.50;99.90
21167;DHT22;10741;52.272;9.580;2023-06-14T05:28:38;15.40;99.90
21167;DHT22;10741;52.272;9.580;2023-06-14T05:31:04;15.50;99.90
21167;DHT22;10741;52.272;9.580;2023-06-14T05:33:30;15.60;99.90
21167;DHT22;10741;52.272;9.580;2023-06-14T05:35:55;15.70;99.90
21167;DHT22;10741;52.272;9.580;2023-06-14T05:38:21;15.70;99.90
21167;DHT22;10741;52.272;9.580;2023-06-14T05:40:47;15.70;99.90
21167;DHT22;10741;52.272;9.580;2023-06-14T05:43:13;15.80;99.90
21167;DHT22;10741;52.272;9.580;2023-06-14T05:45:39;16.00;99.90
21167;DHT22;10741;52.272;9.580;2023-06-14T05:48:05;16.10;99.90
21167;DHT22;10741;52.272;9.580;2023-06-14T05:50:30;16.20;99.90
21167;DHT22;10741;52.272;9.580;2023-06-14T05:52:56;16.30;99.90
21167;DHT22;10741;52.272;9.580;2023-06-14T05:55:22;16.10;99.90
21167;DHT22;10741;52.272;9.580;2023-06-14T05:57:48;16.20;99.90
21167;DHT22;10741;52.272;9.580;2023-06-14T06:00:14;16.30;99.90
21167;DHT22;10741;52.272;9.580;2023-06-14T06:02:42;16.40;99.90
21167;DHT22;10741;52.272;9.580;2023-06-14T06:05:09;16.50;99.90
21167;DHT22;10741;52.272;9.580;2023-06-14T06:07:36;16.40;99.90
21167;DHT22;10741;52.272;9.580;2023-06-14T06:10:03;16.60;99.90
21167;DHT22;10741;52.272;9.580;2023-06-14T06:12:28;16.70;99.90
21167;DHT22;10741;52.272;9.580;2023-06-14T06:14:54;16.60;99.90
21167;DHT22;10741;52.272;9.580;2023-06-14T06:17:20;16.60;99.90
21167;DHT22;10741;52.272;9.580;2023-06-14T06:19:46;16.70;99.90
21167;DHT22;10741;52.272;9.580;2023-06-14T06:22:12;16.70;99.90
21167;DHT22;10741;52.272;9.580;2023-06-14T06:24:38;17.00;99.90
21167;DHT22;10741;52.272;9.580;2023-06-14T06:27:04;17.20;99.90
21167;DHT22;10741;52.272;9.580;2023-06-14T06:29:29;17.30;99.90
21167;DHT22;10741;52.272;9.580;2023-06-14T06:31:55;17.50;99.90
21167;DHT22;10741;52.272;9.580;2023-06-14T06:34:22;17.70;99.90
21167;DHT22;10741;52.272;9.580;2023-06-14T06:36:47;17.70;99.90
21167;DHT22;10741;52.272;9.580;2023-06-14T06:39:13;17.70;99.90
21167;DHT22;10741;52.272;9.580;2023-06-14T06:41:40;17.70;99.90
21167;DHT22;10741;52.272;9.580;2023-06-14T06:44:07;17.70;99.90
21167;DHT22;10741;52.272;9.580;2023-06-14T06:46:33;17.70;99.90
21167;DHT22;10741;52.272;9.580;2023-06-14T06:49:00;17.80;99.90
21167;DHT22;10741;52.272;9.580;2023-06-14T06:51:26;17.80;99.90
21167;DHT22;10741;52.272;9.580;2023-06-14T06:53:53;17.90;99.90
21167;DHT22;10741;52.272;9.580;2023-06-14T06:56:19;18.20;99.90
21167;DHT22;10741;52.272;9.580;2023-06-14T06:58:49;18.10;99.90
21167;DHT22;10741;52.272;9.580;2023-06-14T07:01:15;18.20;99.90
21167;DHT22;10741;52.272;9.580;2023-06-14T07:03:41;18.20;99.90
21167;DHT22;10741;52.272;9.580;2023-06-14T07:06:07;18.40;99.80
21167;DHT22;10741;52.272;9.580;2023-06-14T07:08:33;18.40;99.50
21167;DHT22;10741;52.272;9.580;2023-06-14T07:10:58;18.30;99.50
21167;DHT22;10741;52.272;9.580;2023-06-14T07:13:24;18.40;99.70
21167;DHT22;10741;52.272;9.580;2023-06-14T07:15:50;18.50;99.40
21167;DHT22;10741;52.272;9.580;2023-06-14T07:18:18;18.30;99.70
21167;DHT22;10741;52.272;9.580;2023-06-14T07:20:44;18.40;98.90
21167;DHT22;10741;52.272;9.580;2023-06-14T07:23:10;18.50;99.40
21167;DHT22;10741;52.272;9.580;2023-06-14T07:25:37;18.70;99.30
21167;DHT22;10741;52.272;9.580;2023-06-14T07:28:03;18.70;98.30
21167;DHT22;10741;52.272;9.580;2023-06-14T07:30:29;18.90;98.50
21167;DHT22;10741;52.272;9.580;2023-06-14T07:32:55;18.90;98.70
21167;DHT22;10741;52.272;9.580;2023-06-14T07:35:21;19.20;98.80
21167;DHT22;10741;52.272;9.580;2023-06-14T07:37:47;19.10;97.90
21167;DHT22;10741;52.272;9.580;2023-06-14T07:40:13;19.00;98.90
21167;DHT22;10741;52.272;9.580;2023-06-14T07:42:39;19.50;98.00
21167;DHT22;10741;52.272;9.580;2023-06-14T07:45:06;19.50;98.00
21167;DHT22;10741;52.272;9.580;2023-06-14T07:47:32;19.30;97.90
21167;DHT22;10741;52.272;9.580;2023-06-14T07:49:58;19.50;97.60
21167;DHT22;10741;52.272;9.580;2023-06-14T07:52:24;19.30;97.60
21167;DHT22;10741;52.272;9.580;2023-06-14T07:54:50;19.40;96.70
21167;DHT22;10741;52.272;9.580;2023-06-14T07:57:16;19.10;96.50
21167;DHT22;10741;52.272;9.580;2023-06-14T07:59:42;19.10;97.80
21167;DHT22;10741;52.272;9.580;2023-06-14T08:02:07;19.30;96.40
21167;DHT22;10741;52.272;9.580;2023-06-14T08:04:33;19.70;96.70
21167;DHT22;10741;52.272;9.580;2023-06-14T08:07:00;20.10;95.80
21167;DHT22;10741;52.272;9.580;2023-06-14T08:09:26;20.20;95.20
21167;DHT22;10741;52.272;9.580;2023-06-14T08:11:54;20.50;94.00
21167;DHT22;10741;52.272;9.580;2023-06-14T08:14:20;20.80;94.40
21167;DHT22;10741;52.272;9.580;2023-06-14T08:16:46;20.90;93.70
21167;DHT22;10741;52.272;9.580;2023-06-14T08:19:11;21.20;94.10
21167;DHT22;10741;52.272;9.580;2023-06-14T08:21:37;21.60;93.00
21167;DHT22;10741;52.272;9.580;2023-06-14T08:24:03;21.70;93.60
21167;DHT22;10741;52.272;9.580;2023-06-14T08:26:30;21.60;92.90
21167;DHT22;10741;52.272;9.580;2023-06-14T08:28:57;21.40;92.40
21167;DHT22;10741;52.272;9.580;2023-06-14T08:31:23;21.50;92.00
21167;DHT22;10741;52.272;9.580;2023-06-14T08:33:50;21.70;91.60
21167;DHT22;10741;52.272;9.580;2023-06-14T08:36:16;22.00;91.10
21167;DHT22;10741;52.272;9.580;2023-06-14T08:38:42;22.30;91.20
21167;DHT22;10741;52.272;9.580;2023-06-14T08:41:11;22.30;90.00
21167;DHT22;10741;52.272;9.580;2023-06-14T08:43:39;22.60;88.90
21167;DHT22;10741;52.272;9.580;2023-06-14T08:46:06;23.10;88.90
21167;DHT22;10741;52.272;9.580;2023-06-14T08:48:34;23.00;85.90
21167;DHT22;10741;52.272;9.580;2023-06-14T08:51:00;23.00;86.00
21167;DHT22;10741;52.272;9.580;2023-06-14T08:53:32;22.80;86.90
21167;DHT22;10741;52.272;9.580;2023-06-14T08:56:02;22.60;87.00
21167;DHT22;10741;52.272;9.580;2023-06-14T08:58:34;22.70;85.50
21167;DHT22;10741;52.272;9.580;2023-06-14T09:01:01;23.40;87.60
21167;DHT22;10741;52.272;9.580;2023-06-14T09:03:27;23.10;84.80
21167;DHT22;10741;52.272;9.580;2023-06-14T09:05:59;22.70;85.30
21167;DHT22;10741;52.272;9.580;2023-06-14T09:08:27;23.10;87.50
21167;DHT22;10741;52.272;9.580;2023-06-14T09:10:57;23.60;85.90
21167;DHT22;10741;52.272;9.580;2023-06-14T09:13:22;23.90;84.40
21167;DHT22;10741;52.272;9.580;2023-06-14T09:15:48;24.10;83.40
21167;DHT22;10741;52.272;9.580;2023-06-14T09:18:14;23.90;83.20
21167;DHT22;10741;52.272;9.580;2023-06-14T09:20:41;23.90;83.20
21167;DHT22;10741;52.272;9.580;2023-06-14T09:23:07;24.10;82.50
21167;DHT22;10741;52.272;9.580;2023-06-14T09:25:42;23.90;83.30
21167;DHT22;10741;52.272;9.580;2023-06-14T09:28:08;23.40;83.70
21167;DHT22;10741;52.272;9.580;2023-06-14T09:30:35;23.80;85.60
21167;DHT22;10741;52.272;9.580;2023-06-14T09:33:01;24.20;82.60
21167;DHT22;10741;52.272;9.580;2023-06-14T09:35:27;24.50;82.20
21167;DHT22;10741;52.272;9.580;2023-06-14T09:37:55;24.90;82.50
21167;DHT22;10741;52.272;9.580;2023-06-14T09:40:21;24.90;79.80
21167;DHT22;10741;52.272;9.580;2023-06-14T09:42:47;24.90;79.90
21167;DHT22;10741;52.272;9.580;2023-06-14T09:45:13;24.90;81.30
21167;DHT22;10741;52.272;9.580;2023-06-14T09:47:39;24.50;79.80
21167;DHT22;10741;52.272;9.580;2023-06-14T09:50:06;24.60;78.40
21167;DHT22;10741;52.272;9.580;2023-06-14T09:52:32;24.80;79.00
21167;DHT22;10741;52.272;9.580;2023-06-14T09:54:59;25.00;80.70
21167;DHT22;10741;52.272;9.580;2023-06-14T09:57:26;25.20;77.60
21167;DHT22;10741;52.272;9.580;2023-06-14T09:59:57;24.80;79.00
21167;DHT22;10741;52.272;9.580;2023-06-14T10:02:36;25.00;76.90
21167;DHT22;10741;52.272;9.580;2023-06-14T10:05:09;25.40;77.90
21167;DHT22;10741;52.272;9.580;2023-06-14T10:07:53;25.60;77.80
21167;DHT22;10741;52.272;9.580;2023-06-14T10:10:21;25.70;77.00
21167;DHT22;10741;52.272;9.580;2023-06-14T10:12:47;25.70;75.90
21167;DHT22;10741;52.272;9.580;2023-06-14T10:15:26;25.50;74.00
21167;DHT22;10741;52.272;9.580;2023-06-14T10:18:01;25.40;75.80
21167;DHT22;10741;52.272;9.580;2023-06-14T10:20:38;25.20;74.00
21167;DHT22;10741;52.272;9.580;2023-06-14T10:23:21;25.50;74.50
21167;DHT22;10741;52.272;9.580;2023-06-14T10:25:54;25.60;75.40
21167;DHT22;10741;52.272;9.580;2023-06-14T10:28:22;25.40;77.60
21167;DHT22;10741;52.272;9.580;2023-06-14T10:31:10;25.50;73.90
21167;DHT22;10741;52.272;9.580;2023-06-14T10:33:49;25.60;74.00
21167;DHT22;10741;52.272;9.580;2023-06-14T10:39:10;25.60;74.80
21167;DHT22;10741;52.272;9.580;2023-06-14T10:41:38;25.50;74.00
21167;DHT22;10741;52.272;9.580;2023-06-14T10:44:31;25.80;75.20
21167;DHT22;10741;52.272;9.580;2023-06-14T10:47:01;26.20;71.50
21167;DHT22;10741;52.272;9.580;2023-06-14T10:49:40;26.10;72.20
21167;DHT22;10741;52.272;9.580;2023-06-14T10:52:13;26.10;73.70
21167;DHT22;10741;52.272;9.580;2023-06-14T10:55:12;26.10;73.30
21167;DHT22;10741;52.272;9.580;2023-06-14T10:57:58;26.50;73.50
21167;DHT22;10741;52.272;9.580;2023-06-14T11:00:28;26.40;73.20
21167;DHT22;10741;52.272;9.580;2023-06-14T11:06:13;25.90;73.20
21167;DHT22;10741;52.272;9.580;2023-06-14T11:08:51;25.30;76.60
21167;DHT22;10741;52.272;9.580;2023-06-14T11:11:22;25.60;74.20
21167;DHT22;10741;52.272;9.580;2023-06-14T11:13:51;25.10;75.30
21167;DHT22;10741;52.272;9.580;2023-06-14T11:16:18;24.90;75.10
21167;DHT22;10741;52.272;9.580;2023-06-14T11:18:46;24.40;77.90
21167;DHT22;10741;52.272;9.580;2023-06-14T11:21:18;25.10;77.50
21167;DHT22;10741;52.272;9.580;2023-06-14T11:23:49;25.20;74.60
21167;DHT22;10741;52.272;9.580;2023-06-14T11:26:16;24.70;74.80
21167;DHT22;10741;52.272;9.580;2023-06-14T11:28:55;24.80;77.10
21167;DHT22;10741;52.272;9.580;2023-06-14T11:31:22;24.20;79.30
21167;DHT22;10741;52.272;9.580;2023-06-14T11:33:51;23.60;80.70
21167;DHT22;10741;52.272;9.580;2023-06-14T11:36:18;23.60;81.00
21167;DHT22;10741;52.272;9.580;2023-06-14T11:38:44;23.40;81.40
21167;DHT22;10741;52.272;9.580;2023-06-14T11:41:10;23.40;82.70
21167;DHT22;10741;52.272;9.580;2023-06-14T11:43:35;23.30;82.80
21167;DHT22;10741;52.272;9.580;2023-06-14T11:46:01;23.90;82.00
21167;DHT22;10741;52.272;9.580;2023-06-14T11:48:42;24.10;79.40
21167;DHT22;10741;52.272;9.580;2023-06-14T11:51:08;23.90;80.90
21167;DHT22;10741;52.272;9.580;2023-06-14T11:53:34;25.20;78.80
21167;DHT22;10741;52.272;9.580;2023-06-14T11:56:00;25.60;77.20
21167;DHT22;10741;52.272;9.580;2023-06-14T11:58:26;25.20;76.60
21167;DHT22;10741;52.272;9.580;2023-06-14T12:00:53;25.50;76.20
21167;DHT22;10741;52.272;9.580;2023-06-14T12:03:26;25.10;75.90
21167;DHT22;10741;52.272;9.580;2023-06-14T12:06:05;24.40;77.20
21167;DHT22;10741;52.272;9.580;2023-06-14T12:08:38;24.30;77.60
21167;DHT22;10741;52.272;9.580;2023-06-14T12:11:12;25.50;76.70
21167;DHT22;10741;52.272;9.580;2023-06-14T12:13:42;26.00;72.80
21167;DHT22;10741;52.272;9.580;2023-06-14T12:16:09;26.70;73.50
21167;DHT22;10741;52.272;9.580;2023-06-14T12:18:37;27.40;72.40
21167;DHT22;10741;52.272;9.580;2023-06-14T12:21:08;26.30;72.40
21167;DHT22;10741;52.272;9.580;2023-06-14T12:26:13;24.90;75.30
21167;DHT22;10741;52.272;9.580;2023-06-14T12:28:40;24.50;78.50
21167;DHT22;10741;52.272;9.580;2023-06-14T12:31:07;24.40;78.60
21167;DHT22;10741;52.272;9.580;2023-06-14T12:33:33;24.20;79.70
21167;DHT22;10741;52.272;9.580;2023-06-14T12:35:58;24.40;78.50
21167;DHT22;10741;52.272;9.580;2023-06-14T12:38:24;25.00;79.20
21167;DHT22;10741;52.272;9.580;2023-06-14T12:40:50;26.30;76.80
21167;DHT22;10741;52.272;9.580;2023-06-14T12:43:16;26.80;73.90
21167;DHT22;10741;52.272;9.580;2023-06-14T12:45:42;26.50;74.00
21167;DHT22;10741;52.272;9.580;2023-06-14T12:48:08;26.00;73.70
21167;DHT22;10741;52.272;9.580;2023-06-14T12:50:34;25.40;75.00
21167;DHT22;10741;52.272;9.580;2023-06-14T12:53:00;25.10;76.70
21167;DHT22;10741;52.272;9.580;2023-06-14T12:55:26;25.90;76.60
21167;DHT22;10741;52.272;9.580;2023-06-14T12:57:51;27.20;74.60
21167;DHT22;10741;52.272;9.580;2023-06-14T13:00:18;27.40;72.20
21167;DHT22;10741;52.272;9.580;2023-06-14T13:02:44;28.10;73.70
21167;DHT22;10741;52.272;9.580;2023-06-14T13:05:09;26.80;72.10
21167;DHT22;10741;52.272;9.580;2023-06-14T13:07:35;25.80;73.20
21167;DHT22;10741;52.272;9.580;2023-06-14T13:10:01;25.00;75.90
21167;DHT22;10741;52.272;9.580;2023-06-14T13:12:27;24.70;78.60
21167;DHT22;10741;52.272;9.580;2023-06-14T13:14:53;24.50;79.90
21167;DHT22;10741;52.272;9.580;2023-06-14T13:17:18;24.50;81.20
21167;DHT22;10741;52.272;9.580;2023-06-14T13:19:44;24.20;79.40
21167;DHT22;10741;52.272;9.580;2023-06-14T13:22:10;24.00;80.00
21167;DHT22;10741;52.272;9.580;2023-06-14T13:24:36;24.60;80.60
21167;DHT22;10741;52.272;9.580;2023-06-14T13:27:02;26.00;77.80
21167;DHT22;10741;52.272;9.580;2023-06-14T13:29:27;26.70;76.50
21167;DHT22;10741;52.272;9.580;2023-06-14T13:31:54;27.10;75.60
21167;DHT22;10741;52.272;9.580;2023-06-14T13:34:19;27.60;72.30
21167;DHT22;10741;52.272;9.580;2023-06-14T13:36:46;27.70;73.90
21167;DHT22;10741;52.272;9.580;2023-06-14T13:39:12;28.20;71.70
21167;DHT22;10741;52.272;9.580;2023-06-14T13:41:38;27.80;71.90
21167;DHT22;10741;52.272;9.580;2023-06-14T13:44:04;27.60;72.00
21167;DHT22;10741;52.272;9.580;2023-06-14T13:46:30;28.00;71.90
21167;DHT22;10741;52.272;9.580;2023-06-14T13:48:56;28.40;70.90
21167;DHT22;10741;52.272;9.580;2023-06-14T13:51:23;28.60;69.60
21167;DHT22;10741;52.272;9.580;2023-06-14T13:53:49;28.70;68.60
21167;DHT22;10741;52.272;9.580;2023-06-14T13:56:16;28.80;69.90
21167;DHT22;10741;52.272;9.580;2023-06-14T13:58:42;28.40;72.10
21167;DHT22;10741;52.272;9.580;2023-06-14T14:01:09;28.90;70.40
21167;DHT22;10741;52.272;9.580;2023-06-14T14:03:35;28.80;69.40
21167;DHT22;10741;52.272;9.580;2023-06-14T14:06:01;28.60;67.00
21167;DHT22;10741;52.272;9.580;2023-06-14T14:08:27;28.70;69.40
21167;DHT22;10741;52.272;9.580;2023-06-14T14:10:53;28.90;69.40
21167;DHT22;10741;52.272;9.580;2023-06-14T14:13:19;28.90;68.80
21167;DHT22;10741;52.272;9.580;2023-06-14T14:15:46;28.80;67.40
21167;DHT22;10741;52.272;9.580;2023-06-14T14:18:12;29.10;66.10
21167;DHT22;10741;52.272;9.580;2023-06-14T14:20:38;28.50;66.80
21167;DHT22;10741;52.272;9.580;2023-06-14T14:23:03;27.80;70.00
21167;DHT22;10741;52.272;9.580;2023-06-14T14:25:30;27.00;72.10
21167;DHT22;10741;52.272;9.580;2023-06-14T14:27:55;26.10;72.60
21167;DHT22;10741;52.272;9.580;2023-06-14T14:30:21;25.70;75.10
21167;DHT22;10741;52.272;9.580;2023-06-14T14:32:49;25.20;76.80
21167;DHT22;10741;52.272;9.580;2023-06-14T14:35:17;25.00;78.00
21167;DHT22;10741;52.272;9.580;2023-06-14T14:37:43;24.80;76.30
21167;DHT22;10741;52.272;9.580;2023-06-14T14:40:09;24.70;76.40
21167;DHT22;10741;52.272;9.580;2023-06-14T14:42:36;25.20;77.60
21167;DHT22;10741;52.272;9.580;2023-06-14T14:45:02;25.40;77.10
21167;DHT22;10741;52.272;9.580;2023-06-14T14:47:28;25.90;74.70
21167;DHT22;10741;52.272;9.580;2023-06-14T14:49:54;26.30;74.50
21167;DHT22;10741;52.272;9.580;2023-06-14T14:52:20;26.50;73.40
21167;DHT22;10741;52.272;9.580;2023-06-14T14:54:45;26.60;71.90
21167;DHT22;10741;52.272;9.580;2023-06-14T14:57:11;26.70;73.00
21167;DHT22;10741;52.272;9.580;2023-06-14T14:59:37;26.50;72.70
21167;DHT22;10741;52.272;9.580;2023-06-14T15:02:03;26.40;73.40
21167;DHT22;10741;52.272;9.580;2023-06-14T15:04:29;26.50;73.90
21167;DHT22;10741;52.272;9.580;2023-06-14T15:06:54;26.30;72.50
21167;DHT22;10741;52.272;9.580;2023-06-14T15:09:20;26.00;73.70
21167;DHT22;10741;52.272;9.580;2023-06-14T15:11:46;25.80;74.10
21167;DHT22;10741;52.272;9.580;2023-06-14T15:14:11;25.60;71.70
21167;DHT22;10741;52.272;9.580;2023-06-14T15:16:37;25.60;74.20
21167;DHT22;10741;52.272;9.580;2023-06-14T15:19:03;25.50;72.90
21167;DHT22;10741;52.272;9.580;2023-06-14T15:21:29;25.40;72.60
21167;DHT22;10741;52.272;9.580;2023-06-14T15:23:54;25.40;73.80
21167;DHT22;10741;52.272;9.580;2023-06-14T15:26:20;25.50;73.80
21167;DHT22;10741;52.272;9.580;2023-06-14T15:28:46;25.70;73.40
21167;DHT22;10741;52.272;9.580;2023-06-14T15:31:12;25.80;73.90
21167;DHT22;10741;52.272;9.580;2023-06-14T15:33:38;25.80;75.10
21167;DHT22;10741;52.272;9.580;2023-06-14T15:36:04;25.80;74.70
21167;DHT22;10741;52.272;9.580;2023-06-14T15:38:30;25.30;75.80
21167;DHT22;10741;52.272;9.580;2023-06-14T15:40:57;24.80;77.50
21167;DHT22;10741;52.272;9.580;2023-06-14T15:43:23;24.50;78.60
21167;DHT22;10741;52.272;9.580;2023-06-14T15:45:49;24.30;79.80
21167;DHT22;10741;52.272;9.580;2023-06-14T15:48:15;24.00;80.00